createdAt,value
2023-02-06T00:00:39.415Z,4.80
2023-02-06T00:03:06.044Z,5.57
2023-02-06T00:05:33.454Z,4.83
2023-02-06T00:08:00.610Z,5.80
2023-02-06T00:10:27.769Z,4.70
2023-02-06T00:12:54.658Z,4.60
2023-02-06T00:15:21.318Z,5.00
2023-02-06T00:17:48.008Z,5.00
2023-02-06T00:20:15.183Z,5.13
2023-02-06T00:22:41.804Z,3.90
2023-02-06T00:25:08.654Z,3.77
2023-02-06T00:27:35.615Z,4.03
2023-02-06T00:30:02.236Z,4.60
2023-02-06T00:32:28.845Z,4.43
2023-02-06T00:34:55.870Z,4.07
2023-02-06T00:37:22.508Z,4.90
2023-02-06T00:39:49.008Z,4.77
2023-02-06T00:42:15.610Z,4.40
2023-02-06T00:44:42.346Z,4.40
2023-02-06T00:47:08.910Z,4.60
2023-02-06T00:49:35.432Z,4.53
2023-02-06T00:52:02.286Z,4.30
2023-02-06T00:54:28.892Z,4.70
2023-02-06T00:56:55.761Z,5.67
2023-02-06T00:59:22.507Z,6.03
2023-02-06T01:01:49.199Z,5.03
2023-02-06T01:04:15.782Z,4.83
2023-02-06T01:06:42.591Z,5.07
2023-02-06T01:09:09.253Z,4.87
2023-02-06T01:11:38.645Z,5.07
2023-02-06T01:14:05.309Z,4.83
2023-02-06T01:16:32.042Z,4.40
2023-02-06T01:18:58.572Z,4.80
2023-02-06T01:21:25.267Z,4.80
2023-02-06T01:23:53.157Z,4.63
2023-02-06T01:26:22.894Z,4.70
2023-02-06T01:28:50.287Z,4.33
2023-02-06T01:31:20.695Z,4.70
2023-02-06T01:33:50.057Z,4.53
2023-02-06T01:36:17.867Z,4.90
2023-02-06T01:38:44.641Z,3.63
2023-02-06T01:41:13.138Z,4.30
2023-02-06T01:43:43.064Z,4.20
2023-02-06T01:46:10.115Z,3.77
2023-02-06T01:48:54.980Z,4.67
2023-02-06T01:51:23.871Z,5.23
2023-02-06T01:53:52.435Z,4.73
2023-02-06T01:56:19.753Z,4.90
2023-02-06T01:58:50.229Z,5.00
2023-02-06T02:01:17.245Z,5.33
2023-02-06T02:03:47.478Z,4.20
2023-02-06T02:06:16.903Z,4.67
2023-02-06T02:08:45.895Z,5.30
2023-02-06T02:11:17.495Z,4.70
2023-02-06T02:13:44.349Z,5.23
2023-02-06T02:16:41.959Z,4.17
2023-02-06T02:19:20.814Z,4.60
2023-02-06T02:22:05.967Z,4.33
2023-02-06T02:24:35.623Z,4.53
2023-02-06T02:27:43.306Z,4.73
2023-02-06T02:30:16.400Z,4.17
2023-02-06T02:33:14.024Z,4.63
2023-02-06T02:35:47.131Z,3.70
2023-02-06T02:38:33.336Z,4.07
2023-02-06T02:41:18.916Z,4.67
2023-02-06T02:43:51.938Z,4.93
2023-02-06T02:46:21.528Z,5.20
2023-02-06T02:48:50.366Z,4.50
2023-02-06T02:51:17.282Z,5.07
2023-02-06T02:53:44.467Z,5.50
2023-02-06T02:56:15.102Z,5.53
2023-02-06T02:58:42.137Z,5.00
2023-02-06T03:01:11.651Z,4.63
2023-02-06T03:03:40.679Z,4.10
2023-02-06T03:06:32.244Z,4.70
2023-02-06T03:09:16.830Z,4.77
2023-02-06T03:12:04.141Z,4.00
2023-02-06T03:14:35.205Z,4.30
2023-02-06T03:17:10.056Z,4.47
2023-02-06T03:19:41.512Z,4.67
2023-02-06T03:22:08.358Z,5.00
2023-02-06T03:24:38.464Z,4.07
2023-02-06T03:27:08.380Z,4.07
2023-02-06T03:29:36.045Z,4.20
2023-02-06T03:32:11.227Z,4.77
2023-02-06T03:34:46.999Z,5.33
2023-02-06T03:37:13.778Z,4.97
2023-02-06T03:39:40.610Z,5.70
2023-02-06T03:42:07.972Z,5.27
2023-02-06T03:44:37.047Z,5.27
2023-02-06T03:47:05.242Z,5.07
2023-02-06T03:49:33.046Z,5.03
2023-02-06T03:52:01.532Z,4.77
2023-02-06T03:54:29.301Z,4.87
2023-02-06T03:57:01.960Z,5.80
2023-02-06T03:59:28.834Z,5.77
2023-02-06T04:01:58.167Z,4.93
2023-02-06T04:04:29.363Z,5.37
2023-02-06T04:07:02.143Z,4.93
2023-02-06T04:09:28.848Z,4.70
2023-02-06T04:11:55.431Z,4.90
2023-02-06T04:14:22.033Z,4.00
2023-02-06T04:16:48.644Z,4.97
2023-02-06T04:19:15.442Z,3.80
2023-02-06T04:21:42.203Z,4.23
2023-02-06T04:24:09.637Z,4.37
2023-02-06T04:26:36.438Z,3.80
2023-02-06T04:29:03.187Z,4.83
2023-02-06T04:31:29.930Z,5.33
2023-02-06T04:33:56.516Z,4.27
2023-02-06T04:36:23.077Z,4.73
2023-02-06T04:38:49.596Z,4.80
2023-02-06T04:41:16.271Z,4.33
2023-02-06T04:43:43.336Z,4.17
2023-02-06T04:46:09.946Z,4.13
2023-02-06T04:48:37.512Z,4.60
2023-02-06T04:51:04.553Z,6.37
2023-02-06T04:53:31.201Z,4.63
2023-02-06T04:56:10.741Z,4.97
2023-02-06T04:58:38.199Z,5.10
2023-02-06T05:01:05.581Z,5.67
2023-02-06T05:03:32.526Z,5.40
2023-02-06T05:06:00.678Z,5.50
2023-02-06T05:08:27.623Z,4.83
2023-02-06T05:10:55.186Z,4.47
2023-02-06T05:13:21.953Z,5.57
2023-02-06T05:15:48.634Z,5.87
2023-02-06T05:18:15.719Z,5.00
2023-02-06T05:20:44.253Z,5.07
2023-02-06T05:23:10.754Z,5.23
2023-02-06T05:25:37.911Z,4.47
2023-02-06T05:28:06.676Z,5.40
2023-02-06T05:30:34.630Z,4.80
2023-02-06T05:33:02.060Z,5.20
2023-02-06T05:35:28.744Z,4.63
2023-02-06T05:37:55.380Z,5.20
2023-02-06T05:40:22.180Z,4.73
2023-02-06T05:42:48.869Z,6.27
2023-02-06T05:45:15.617Z,5.80
2023-02-06T05:47:42.663Z,4.70
2023-02-06T05:50:09.450Z,5.07
2023-02-06T05:52:36.153Z,5.40
2023-02-06T05:55:02.725Z,5.57
2023-02-06T05:57:29.497Z,5.73
2023-02-06T05:59:56.151Z,5.07
2023-02-06T06:02:22.842Z,5.37
2023-02-06T06:04:49.377Z,5.30
2023-02-06T06:07:16.702Z,5.43
2023-02-06T06:09:43.384Z,6.83
2023-02-06T06:12:10.114Z,5.70
2023-02-06T06:14:36.692Z,5.47
2023-02-06T06:17:03.281Z,5.87
2023-02-06T06:19:29.865Z,5.60
2023-02-06T06:21:58.264Z,6.03
2023-02-06T06:24:26.151Z,5.83
2023-02-06T06:26:52.886Z,5.57
2023-02-06T06:29:19.415Z,6.20
2023-02-06T06:31:46.206Z,6.70
2023-02-06T06:34:12.837Z,6.87
2023-02-06T06:36:39.566Z,6.90
2023-02-06T06:39:06.192Z,6.40
2023-02-06T06:41:32.723Z,6.43
2023-02-06T06:43:59.558Z,7.97
2023-02-06T06:46:26.657Z,9.67
2023-02-06T06:48:53.172Z,11.95
2023-02-06T06:51:20.423Z,11.97
2023-02-06T06:53:47.120Z,10.83
2023-02-06T06:56:14.733Z,10.10
2023-02-06T06:58:42.045Z,9.43
2023-02-06T07:01:08.846Z,11.33
2023-02-06T07:03:36.833Z,10.53
2023-02-06T07:06:04.494Z,10.17
2023-02-06T07:08:31.663Z,11.10
2023-02-06T07:10:58.392Z,10.23
2023-02-06T07:13:25.270Z,11.97
2023-02-06T07:15:51.979Z,11.73
2023-02-06T07:18:18.665Z,12.80
2023-02-06T07:20:45.209Z,11.93
2023-02-06T07:23:11.762Z,13.17
2023-02-06T07:25:38.530Z,13.60
2023-02-06T07:28:05.346Z,14.03
2023-02-06T07:30:31.924Z,13.03
2023-02-06T07:32:58.692Z,12.57
2023-02-06T07:35:25.364Z,13.67
2023-02-06T07:37:55.211Z,13.37
2023-02-06T07:40:22.201Z,14.20
2023-02-06T07:42:48.856Z,13.20
2023-02-06T07:45:15.492Z,11.90
2023-02-06T07:47:43.144Z,12.87
2023-02-06T07:50:10.626Z,12.00
2023-02-06T07:52:37.532Z,11.80
2023-02-06T07:55:04.639Z,13.63
2023-02-06T07:57:31.370Z,13.00
2023-02-06T07:59:58.012Z,12.17
2023-02-06T08:02:24.996Z,12.97
2023-02-06T08:04:51.496Z,11.90
2023-02-06T08:07:18.682Z,12.27
2023-02-06T08:09:45.357Z,10.83
2023-02-06T08:12:12.152Z,11.63
2023-02-06T08:14:38.828Z,12.40
2023-02-06T08:17:05.354Z,11.90
2023-02-06T08:19:32.075Z,11.03
2023-02-06T08:21:58.730Z,11.30
2023-02-06T08:24:25.782Z,12.73
2023-02-06T08:26:52.542Z,11.53
2023-02-06T08:29:19.450Z,12.27
2023-02-06T08:31:46.414Z,11.33
2023-02-06T08:34:14.266Z,11.57
2023-02-06T08:36:43.390Z,11.07
2023-02-06T08:39:13.344Z,12.17
2023-02-06T08:41:41.329Z,11.17
2023-02-06T08:44:14.385Z,12.83
2023-02-06T08:46:41.597Z,11.37
2023-02-06T08:49:19.385Z,11.77
2023-02-06T08:51:46.380Z,10.80
2023-02-06T08:54:15.849Z,12.67
2023-02-06T08:56:43.033Z,11.20
2023-02-06T08:59:11.013Z,11.17
2023-02-06T09:01:38.474Z,10.63
2023-02-06T09:04:08.206Z,11.53
2023-02-06T09:06:36.572Z,12.20
2023-02-06T09:09:04.332Z,11.60
2023-02-06T09:11:31.506Z,12.40
2023-02-06T09:13:59.704Z,13.20
2023-02-06T09:16:27.734Z,13.43
2023-02-06T09:18:55.189Z,15.43
2023-02-06T09:21:26.017Z,14.03
2023-02-06T09:23:55.528Z,15.50
2023-02-06T09:26:24.263Z,16.83
2023-02-06T09:28:54.684Z,17.73
2023-02-06T09:31:21.326Z,17.93
2023-02-06T09:33:48.257Z,17.73
2023-02-06T09:36:17.128Z,18.30
2023-02-06T09:38:46.350Z,18.27
2023-02-06T09:41:24.538Z,18.20
2023-02-06T09:43:54.065Z,18.53
2023-02-06T09:46:27.332Z,19.10
2023-02-06T09:48:55.902Z,19.33
2023-02-06T09:51:44.495Z,21.33
2023-02-06T09:54:49.961Z,21.10
2023-02-06T09:57:37.744Z,21.17
2023-02-06T10:00:15.068Z,21.27
2023-02-06T10:03:19.411Z,21.10
2023-02-06T10:05:48.896Z,20.83
2023-02-06T10:08:21.594Z,20.53
2023-02-06T10:10:56.822Z,21.97
2023-02-06T10:13:31.164Z,22.30
2023-02-06T10:16:01.981Z,21.47
2023-02-06T10:18:53.237Z,21.73
2023-02-06T10:21:28.590Z,20.03
2023-02-06T10:24:11.444Z,20.57
2023-02-06T10:26:40.574Z,20.40
2023-02-06T10:29:16.812Z,20.43
2023-02-06T10:31:58.782Z,21.43
2023-02-06T10:34:34.130Z,21.13
2023-02-06T10:37:00.738Z,21.93
2023-02-06T10:39:36.294Z,22.37
2023-02-06T10:42:05.508Z,22.27
2023-02-06T10:44:40.322Z,22.77
2023-02-06T10:47:19.693Z,23.13
2023-02-06T10:49:49.920Z,22.80
2023-02-06T10:52:34.204Z,24.00
2023-02-06T10:55:05.412Z,22.60
2023-02-06T10:57:32.288Z,23.17
2023-02-06T11:00:00.945Z,22.80
2023-02-06T11:02:32.899Z,21.47
2023-02-06T11:05:00.991Z,19.20
2023-02-06T11:07:35.330Z,20.67
2023-02-06T11:10:02.154Z,21.00
2023-02-06T11:12:36.020Z,18.60
2023-02-06T11:15:08.290Z,18.83
2023-02-06T11:17:35.418Z,18.53
2023-02-06T11:20:21.862Z,18.87
2023-02-06T11:22:53.059Z,17.17
2023-02-06T11:25:31.435Z,18.07
2023-02-06T11:27:59.039Z,18.07
2023-02-06T11:30:30.525Z,18.57
2023-02-06T11:33:04.561Z,21.27
2023-02-06T11:35:35.734Z,21.73
2023-02-06T11:38:13.817Z,23.80
2023-02-06T11:40:40.500Z,25.83
2023-02-06T11:43:13.420Z,25.40
2023-02-06T11:45:41.269Z,26.50
2023-02-06T11:48:30.729Z,25.57
2023-02-06T11:50:57.698Z,27.90
2023-02-06T11:53:24.283Z,24.80
2023-02-06T11:56:14.225Z,25.37
2023-02-06T11:58:40.859Z,23.50
2023-02-06T12:01:09.715Z,22.10
2023-02-06T12:03:43.560Z,18.87
2023-02-06T12:06:10.388Z,14.67
2023-02-06T12:08:49.770Z,14.63
2023-02-06T12:11:30.866Z,12.13
2023-02-06T12:14:09.903Z,12.83
2023-02-06T12:16:39.116Z,11.23
2023-02-06T12:19:11.721Z,10.60
2023-02-06T12:21:42.991Z,9.77
2023-02-06T12:24:25.737Z,8.90
2023-02-06T12:26:53.766Z,9.07
2023-02-06T12:29:24.587Z,8.93
2023-02-06T12:32:25.155Z,7.93
2023-02-06T12:35:02.274Z,8.73
2023-02-06T12:37:47.128Z,8.17
2023-02-06T12:40:38.336Z,9.33
2023-02-06T12:43:12.530Z,8.93
2023-02-06T12:45:50.004Z,9.07
2023-02-06T12:48:22.973Z,9.70
2023-02-06T12:51:09.895Z,8.10
2023-02-06T12:53:58.469Z,8.67
2023-02-06T12:56:33.786Z,8.70
2023-02-06T12:59:09.468Z,8.57
2023-02-06T13:02:01.073Z,8.93
2023-02-06T13:04:33.258Z,9.10
2023-02-06T13:07:06.739Z,9.03
2023-02-06T13:09:36.315Z,8.20
2023-02-06T13:12:16.752Z,8.13
2023-02-06T13:14:52.469Z,9.00
2023-02-06T13:17:28.005Z,7.97
2023-02-06T13:20:10.145Z,9.07
2023-02-06T13:22:53.775Z,9.90
2023-02-06T13:25:28.082Z,8.60
2023-02-06T13:28:15.285Z,8.80
2023-02-06T13:30:47.141Z,7.73
2023-02-06T13:33:20.371Z,7.47
2023-02-06T13:35:59.219Z,7.53
2023-02-06T13:38:29.078Z,7.77
2023-02-06T13:41:17.039Z,7.13
2023-02-06T13:43:56.172Z,7.33
2023-02-06T13:46:51.673Z,7.30
2023-02-06T13:49:24.397Z,6.77
2023-02-06T13:52:18.429Z,7.60
2023-02-06T13:55:28.678Z,7.30
2023-02-06T13:58:13.543Z,7.87
2023-02-06T14:00:42.845Z,8.67
2023-02-06T14:03:32.373Z,6.90
2023-02-06T14:06:11.471Z,7.20
2023-02-06T14:08:46.844Z,7.60
2023-02-06T14:11:57.504Z,7.27
2023-02-06T14:14:43.906Z,7.97
2023-02-06T14:17:35.378Z,7.50
2023-02-06T14:20:21.682Z,7.13
2023-02-06T14:23:21.938Z,8.07
2023-02-06T14:26:12.392Z,6.70
2023-02-06T14:29:03.223Z,7.93
2023-02-06T14:32:02.157Z,7.97
2023-02-06T14:34:42.407Z,7.43
2023-02-06T14:37:18.112Z,8.40
2023-02-06T14:39:53.569Z,7.73
2023-02-06T14:42:32.502Z,7.43
2023-02-06T14:45:03.190Z,8.53
2023-02-06T14:47:33.361Z,7.80
2023-02-06T14:50:00.733Z,8.03
2023-02-06T14:52:29.519Z,8.77
2023-02-06T14:54:56.479Z,8.53
2023-02-06T14:57:26.137Z,8.77
2023-02-06T14:59:57.232Z,9.63
2023-02-06T15:02:32.148Z,8.60
2023-02-06T15:04:59.690Z,8.60
2023-02-06T15:07:33.140Z,9.03
2023-02-06T15:10:25.735Z,7.93
2023-02-06T15:12:53.493Z,8.00
2023-02-06T15:15:23.083Z,8.33
2023-02-06T15:18:04.684Z,8.73
2023-02-06T15:20:40.528Z,8.47
2023-02-06T15:23:21.094Z,9.27
2023-02-06T15:26:01.779Z,8.97
2023-02-06T15:28:30.894Z,8.67
2023-02-06T15:30:59.217Z,9.37
2023-02-06T15:33:28.502Z,8.47
2023-02-06T15:35:56.942Z,9.00
2023-02-06T15:38:25.270Z,9.67
2023-02-06T15:40:57.016Z,9.13
2023-02-06T15:43:25.749Z,8.97
2023-02-06T15:45:55.688Z,8.47
2023-02-06T15:48:39.531Z,10.40
2023-02-06T15:51:26.928Z,9.27
2023-02-06T15:54:16.313Z,9.60
2023-02-06T15:56:43.702Z,9.00
2023-02-06T15:59:22.162Z,8.90
2023-02-06T16:01:49.260Z,9.00
2023-02-06T16:04:20.397Z,9.77
2023-02-06T16:06:47.406Z,9.33
2023-02-06T16:09:20.194Z,8.20
2023-02-06T16:11:51.573Z,7.50
2023-02-06T16:14:22.504Z,8.07
2023-02-06T16:16:57.646Z,7.23
2023-02-06T16:19:34.995Z,8.13
2023-02-06T16:22:26.782Z,7.33
2023-02-06T16:24:56.148Z,7.83
2023-02-06T16:27:27.523Z,7.60
2023-02-06T16:29:55.992Z,7.70
2023-02-06T16:32:29.648Z,7.03
2023-02-06T16:34:56.282Z,6.80
2023-02-06T16:37:24.164Z,7.07
2023-02-06T16:39:51.264Z,6.17
2023-02-06T16:42:23.061Z,6.83
2023-02-06T16:44:58.541Z,6.17
2023-02-06T16:47:25.168Z,6.10
2023-02-06T16:49:52.349Z,5.13
2023-02-06T16:52:25.890Z,5.83
2023-02-06T16:54:53.661Z,5.60
2023-02-06T16:57:23.308Z,6.20
2023-02-06T16:59:50.285Z,5.43
2023-02-06T17:02:17.490Z,6.00
2023-02-06T17:04:44.223Z,5.93
2023-02-06T17:07:17.142Z,5.90
2023-02-06T17:09:44.724Z,5.27
2023-02-06T17:12:14.082Z,5.70
2023-02-06T17:14:42.805Z,5.13
2023-02-06T17:17:11.652Z,5.90
2023-02-06T17:19:38.840Z,6.03
2023-02-06T17:22:06.376Z,5.43
2023-02-06T17:24:34.124Z,5.37
2023-02-06T17:27:01.571Z,5.37
2023-02-06T17:29:29.342Z,6.07
2023-02-06T17:31:55.884Z,6.80
2023-02-06T17:34:23.626Z,6.73
2023-02-06T17:36:50.351Z,7.60
2023-02-06T17:39:16.971Z,8.20
2023-02-06T17:41:44.028Z,7.67
2023-02-06T17:44:11.834Z,7.03
2023-02-06T17:46:39.084Z,6.80
2023-02-06T17:49:05.949Z,7.50
2023-02-06T17:51:32.580Z,7.60
2023-02-06T17:53:59.450Z,8.30
2023-02-06T17:56:26.019Z,7.27
2023-02-06T17:58:52.646Z,8.37
2023-02-06T18:01:22.179Z,9.17
2023-02-06T18:03:48.956Z,7.83
2023-02-06T18:06:15.813Z,7.60
2023-02-06T18:08:43.350Z,8.73
2023-02-06T18:11:18.606Z,8.17
2023-02-06T18:13:47.334Z,8.00
2023-02-06T18:16:16.459Z,8.40
2023-02-06T18:18:43.823Z,7.73
2023-02-06T18:21:10.545Z,8.33
2023-02-06T18:23:37.873Z,8.20
2023-02-06T18:26:07.412Z,8.30
2023-02-06T18:28:35.563Z,8.80
2023-02-06T18:31:02.666Z,8.57
2023-02-06T18:33:31.345Z,8.97
2023-02-06T18:35:58.319Z,8.33
2023-02-06T18:38:25.333Z,8.07
2023-02-06T18:40:51.917Z,8.00
2023-02-06T18:43:18.494Z,7.43
2023-02-06T18:45:45.303Z,8.20
2023-02-06T18:48:13.524Z,8.73
2023-02-06T18:50:42.461Z,8.53
2023-02-06T18:53:09.730Z,9.07
2023-02-06T18:55:37.320Z,9.07
2023-02-06T18:58:05.690Z,8.73
2023-02-06T19:00:35.251Z,8.67
2023-02-06T19:03:02.154Z,9.37
2023-02-06T19:05:30.931Z,11.03
2023-02-06T19:07:57.599Z,11.03
2023-02-06T19:10:25.941Z,10.73
2023-02-06T19:12:52.628Z,10.87
2023-02-06T19:15:19.568Z,10.40
2023-02-06T19:17:46.262Z,10.33
2023-02-06T19:20:12.966Z,10.53
2023-02-06T19:22:40.017Z,11.07
2023-02-06T19:25:11.719Z,10.20
2023-02-06T19:27:39.470Z,11.87
2023-02-06T19:30:07.877Z,10.40
2023-02-06T19:32:34.774Z,10.47
2023-02-06T19:35:01.588Z,10.27
2023-02-06T19:37:28.230Z,11.07
2023-02-06T19:39:55.150Z,10.27
2023-02-06T19:42:21.798Z,10.67
2023-02-06T19:44:53.192Z,9.57
2023-02-06T19:47:19.889Z,9.23
2023-02-06T19:49:46.591Z,10.20
2023-02-06T19:52:14.583Z,9.17
2023-02-06T19:54:41.189Z,9.77
2023-02-06T19:57:07.826Z,9.83
2023-02-06T19:59:34.405Z,11.40
2023-02-06T20:02:02.447Z,9.77
2023-02-06T20:04:34.708Z,11.17
2023-02-06T20:07:01.603Z,10.40
2023-02-06T20:09:29.285Z,10.57
2023-02-06T20:11:56.583Z,10.10
2023-02-06T20:14:23.990Z,10.63
2023-02-06T20:16:50.730Z,10.80
2023-02-06T20:19:24.725Z,12.03
2023-02-06T20:21:54.324Z,11.97
2023-02-06T20:24:23.926Z,11.37
2023-02-06T20:26:55.901Z,11.83
2023-02-06T20:29:35.555Z,11.80
2023-02-06T20:32:03.865Z,12.23
2023-02-06T20:34:31.156Z,12.50
2023-02-06T20:36:58.174Z,13.33
2023-02-06T20:39:26.217Z,12.83
2023-02-06T20:41:53.734Z,12.00
2023-02-06T20:44:21.006Z,12.67
2023-02-06T20:46:48.598Z,13.03
2023-02-06T20:49:23.577Z,12.03
2023-02-06T20:51:50.794Z,12.80
2023-02-06T20:54:18.840Z,14.50
2023-02-06T20:56:46.412Z,14.50
2023-02-06T20:59:15.366Z,13.40
2023-02-06T21:01:42.760Z,12.17
2023-02-06T21:04:12.317Z,12.90
2023-02-06T21:06:39.682Z,12.70
2023-02-06T21:09:07.626Z,12.97
2023-02-06T21:11:44.419Z,12.90
2023-02-06T21:14:11.890Z,11.17
2023-02-06T21:16:39.477Z,12.53
2023-02-06T21:19:07.922Z,12.27
2023-02-06T21:21:36.460Z,11.87
2023-02-06T21:24:03.409Z,12.63
2023-02-06T21:26:30.217Z,11.73
2023-02-06T21:28:58.942Z,12.70
2023-02-06T21:31:37.549Z,11.00
2023-02-06T21:34:09.109Z,13.53
2023-02-06T21:36:37.856Z,11.77
2023-02-06T21:39:05.731Z,11.47
2023-02-06T21:41:32.879Z,11.70
2023-02-06T21:43:59.599Z,13.53
2023-02-06T21:46:26.455Z,12.27
2023-02-06T21:48:53.936Z,12.10
2023-02-06T21:51:21.645Z,11.97
2023-02-06T21:53:48.335Z,10.70
2023-02-06T21:56:22.517Z,12.10
2023-02-06T21:58:50.433Z,11.23
2023-02-06T22:01:22.967Z,10.90
2023-02-06T22:03:49.624Z,12.00
2023-02-06T22:06:16.954Z,10.90
2023-02-06T22:08:45.476Z,10.97
2023-02-06T22:11:26.982Z,10.53
2023-02-06T22:13:57.926Z,10.83
2023-02-06T22:16:25.303Z,11.23
2023-02-06T22:18:51.911Z,10.40
2023-02-06T22:21:21.545Z,11.17
2023-02-06T22:23:49.446Z,11.10
2023-02-06T22:26:18.015Z,10.83
2023-02-06T22:28:45.035Z,10.60
2023-02-06T22:31:15.613Z,11.43
2023-02-06T22:33:42.888Z,11.60
2023-02-06T22:36:11.930Z,11.53
2023-02-06T22:38:39.200Z,11.87
2023-02-06T22:41:07.711Z,10.93
2023-02-06T22:43:37.798Z,11.37
2023-02-06T22:46:05.767Z,11.83
2023-02-06T22:48:33.201Z,12.47
2023-02-06T22:51:07.495Z,12.37
2023-02-06T22:53:34.219Z,13.80
2023-02-06T22:56:26.430Z,13.67
2023-02-06T22:58:54.568Z,13.33
2023-02-06T23:01:23.758Z,13.90
2023-02-06T23:03:54.731Z,14.43
2023-02-06T23:06:22.140Z,14.50
2023-02-06T23:08:48.828Z,15.33
2023-02-06T23:11:15.848Z,14.37
2023-02-06T23:13:42.948Z,15.33
2023-02-06T23:16:10.183Z,16.47
2023-02-06T23:18:37.585Z,16.33
2023-02-06T23:21:08.031Z,16.17
2023-02-06T23:23:34.875Z,16.23
2023-02-06T23:26:01.547Z,18.10
2023-02-06T23:28:28.457Z,17.83
2023-02-06T23:30:55.502Z,17.17
2023-02-06T23:33:22.163Z,17.67
2023-02-06T23:35:48.932Z,17.03
2023-02-06T23:38:15.689Z,17.43
2023-02-06T23:40:42.250Z,18.37
2023-02-06T23:43:09.687Z,17.13
2023-02-06T23:45:37.462Z,17.33
2023-02-06T23:48:04.446Z,16.47
2023-02-06T23:50:30.974Z,16.40
2023-02-06T23:52:57.688Z,16.50
2023-02-06T23:55:27.977Z,16.73
2023-02-06T23:57:54.743Z,15.90
